May 9 – Tour de Indian Arm

May 9 – Tour de Indian Arm

We have had final confirmation of the scores for the Think International Surfski Challenge for 2015…and it’s another victory for the US, although much closer this year than we’ve seen recently.

From our official score master John Rybcsyk: USA won the the Dan Harris leg, 53 (USA) to 188 for Canada (low score is better). Canada won the Tour de Indian Arm leg, 85 (Canada) to 155 (USA). Combining the two, USA won the Challenge 208 to 273. Congratulations America – we’ll get you next time!

17km Course
Place Name Category Gender Time Difference % Back Pace(km/hr)
1 G Tudor-Jones And K Petereit Coed HPDK F/M 1:18:21.5 12.7
2 Wes Hammer Men HPK Male 1:19:04.7 +0:43.2 +0.9% 12.6
3 B Nelson, J Ecker Men HPDK Male 1:19:54.1 +1:32.6 +2.0% 12.5
4 D Kiesling, E Ecker Coed HPDK F/M 1:20:11.6 +1:50.1 +2.3% 12.4
5 Nicholas Cryder Men HPK Male 1:23:41.9 +5:20.4 +6.8% 11.9
6 Shane Martin Men HPK Male 1:23:46.6 +5:25.1 +6.9% 11.9
7 Kirk Christensen Men HPK Male 1:23:50.1 +5:28.6 +7.0% 11.9
8 J George, B Fast Men HPDK Male 1:24:41.2 +6:19.7 +8.1% 11.7
9 Warren Bruce Men HPK Male 1:24:55.5 +6:34.0 +8.4% 11.7
10 Steve Scoggins Men HPK Male 1:24:56.0 +6:34.5 +8.4% 11.7
11 Ian Lowe Men HPK 1:26:37.9 +8:16.4 +10.6% 11.5
12 Jan Malherbe Men HPK Male 1:27:17.3 +8:55.8 +11.4% 11.4
13 Denis Belkin Men HPK Male 1:28:58.2 +10:36.7 +13.5% 11.2
14 Bruce McTaggart Men HPK 1:29:41.3 +11:19.8 +14.5% 11.1
15 Ty Gee Men HPK Male 1:30:50.7 +12:29.2 +15.9% 11.0
16 Chris Dobrovolny Men HPK Male 1:30:56.0 +12:34.5 +16.0% 10.9
17 Nathan Middleton Men HPK Male 1:30:58.9 +12:37.4 +16.1% 10.9
18 Ken Katz Men HPK Male 1:31:35.9 +13:14.4 +16.9% 10.9
19 Heather Nelson Women HPK Female 1:31:40.1 +13:18.6 +17.0% 10.9
20 Paul Hansen Men HPK 1:31:53.3 +13:31.8 +17.3% 10.8
21 Larry Bussinger Men HPK Male 1:33:15.6 +14:54.1 +19.0% 10.7
22 Russ Stothers Men HPK Male 1:33:19.6 +14:58.1 +19.1% 10.7
23 Gumplingers Coed DK F/M 1:36:15.7 +17:54.2 +22.8% 10.3
24 Dennis Mowry Men HPK 1:37:48.2 +19:26.7 +24.8% 10.2
25 Bernd Groll Men PK Male 1:37:52.8 +19:31.3 +24.9% 10.2
26 Martin Rother Men PK Male 1:38:10.1 +19:48.6 +25.3% 10.1
27 Paul Crivell Men HPK Male 1:38:14.1 +19:52.6 +25.4% 10.1
28 Tyson Lehmann Men HPK 1:38:16.5 +19:55.0 +25.4% 10.1
29 Tony Brown Men PK 1:38:19.0 +19:57.5 +25.5% 10.1
30 Rod Hope Men HPK Male 1:38:45.0 +20:23.5 +26.0% 10.1
31 Gary Cassulis Men SK Male 1:42:02.4 +23:40.9 +30.2% 9.7
32 S Wyatt, M House Coed HPDK 1:42:03.3 +23:41.8 +30.2% 9.7
33 Roger Lamb Men HPK Male 1:45:54.4 +27:32.9 +35.2% 9.4
34 Clay Ronaghan Men HPK Male 1:46:53.2 +28:31.7 +36.4% 9.3
35 Ricki Baxter Women HPK 1:47:42.0 +29:20.5 +37.4% 9.2
36 Jodi Boates Women HPK Female 1:47:58.6 +29:37.1 +37.8% 9.2
37 Douglas Blue Men HPK Male 1:48:17.7 +29:56.2 +38.2% 9.2
38 Jamie Stirling Men PK Male 2:02:28.5 +44:07.0 +56.3% 8.1
10.5km Course
Place Name Category Gender Time Difference % Back Pace(km/hr)
1 Stuart Higginson Men OC1 Male 1:08:41.6 9.2
2 Number 919 Men PK 1:08:43.5 +0:01.9 +0.0% 9.2
3 Graham Schulz Men PK 1:10:09.7 +1:28.1 +2.1% 9.0
4 Jay Inouye Men HPK 1:12:30.9 +3:49.3 +5.6% 8.7
5 Jason Bennett SUP Men 14′ Male 1:12:51.9 +4:10.3 +6.1% 8.6
6 Adam Cole SUP Men 14′ Male 1:13:13.6 +4:32.0 +6.6% 8.6
7 Hector Yu Men OC1 1:14:26.7 +5:45.1 +8.4% 8.5
8 James Thesiger SUP Men 14′ Male 1:14:37.6 +5:56.0 +8.6% 8.4
9 Louie Soave Men HPK Male 1:14:53.7 +6:12.1 +9.0% 8.4
10 Dwayne Lotnick SUP Men 14′ 1:15:09.2 +6:27.6 +9.4% 8.4
11 Sharon Scoggins Women HPK Female 1:15:40.1 +6:58.5 +10.2% 8.3
12 V. “Sandy” Gilliard Women PK Female 1:15:55.9 +7:14.3 +10.5% 8.3
13 Kelvin Humenny SUP Men 14′ Male 1:16:22.2 +7:40.6 +11.2% 8.2
14 Yannick Michaud SUP Men 14′ Male 1:17:22.8 +8:41.2 +12.6% 8.1
15 R Jones & S Britten Men HPDK Male 1:18:27.6 +9:46.0 +14.2% 8.0
16 Paul Fraser SUP Men 14′ 1:18:33.9 +9:52.3 +14.4% 8.0
17 Fred Feuermann SUP Men 14′ Male 1:18:40.7 +9:59.1 +14.5% 8.0
18 Harry Saini SUP Men 14′ Male 1:18:41.8 +10:00.2 +14.6% 8.0
19 David Jianu Prone 1:19:32.6 +10:51.0 +15.8% 7.9
20 Tim Quarles SUP Men 14′ Male 1:20:02.7 +11:21.1 +16.5% 7.9
21 Alison Wood SUP Women 14′ 1:20:43.2 +12:01.6 +17.5% 7.8
22 Evan Gerbrecht SUP Men 14′ Male 1:22:08.5 +13:26.9 +19.6% 7.7
23 Scott Burton SUP Men 14′ 1:22:47.2 +14:05.6 +20.5% 7.6
24 Gary Coulter Men HPK Male 1:23:28.6 +14:47.0 +21.5% 7.5
25 Calvin Sam Men SK Male 1:25:34.5 +16:52.9 +24.6% 7.4
26 Joel Perkins Prone 1:25:58.4 +17:16.8 +25.2% 7.3
27 Verna Mcnichol Women PK Female 1:26:25.8 +17:44.2 +25.8% 7.3
28 Ryan Morford SUP Men 14′ 1:26:26.3 +17:44.7 +25.8% 7.3
29 Peter Allen SUP Men 14′ Male 1:27:20.6 +18:39.0 +27.1% 7.2
30 Tigerlily Team Coed HPDK F/M 1:27:30.1 +18:48.5 +27.4% 7.2
31 Barry Clemiss SUP Men 12’6 Male 1:30:47.7 +22:06.1 +32.2% 6.9
32 Kelly Sullivan SUP Men 14′ Male 1:33:21.4 +24:39.8 +35.9% 6.7
33 Carmen Merkel SUP Women 12’6 Female 1:34:09.8 +25:28.2 +37.1% 6.7
34 Scott Thomas SUP Men 14′ Male 1:36:05.8 +27:24.2 +39.9% 6.6
35 Bob Purdy SUP Men Surf Male 1:40:43.5 +32:01.9 +46.6% 6.3
36 Michael Clarke SUP Men 12’6 1:46:49.3 +38:07.7 +55.5% 5.9
37 Mark Johnston SUP Men 12’6 Male 1:53:05.9 +44:24.3 +64.6% 5.6
6.5km Course
Place Name Category Gender Time Difference % Back Pace(km/hr)
1 Adam Gerbrecht SUP Men 12’6 Male 57:51.0 6.7
2 John Gerbrecht SUP Men 14′ 1:00:06.0 +2:15.0 +3.9% 6.5
3 Isabelle Humenny SUP Women 12’6 Female 1:06:15.8 +8:24.8 +14.5% 5.9
4 Suzanna Taylor SUP Women 14′ 1:06:22.8 +8:31.8 +14.7% 5.9
5 Robin Craig SUP Women 12’6 Female 1:07:26.4 +9:35.4 +16.6% 5.8
6 Kathleen Mccormick SUP Women 12’6 Female 1:10:59.6 +13:08.6 +22.7% 5.5

Comments are closed.